Time;durP1;ratioP1;P1;durP2;ratioP2;P2;SDS_P1;SDS_P2;PMS_P1;PMS_P2;Temp;Humidity;BMP_temperature;BMP_pressure;BME280_temperature;BME280_humidity;BME280_pressure;Samples;Min_cycle;Max_cycle;Signal;HPM_P1;HPM_P2
2024/04/02 00:00:19;;;;;;;;;;;13.90;34.40;15.60;97303.00;;;;5055378;28;1654;-85
2024/04/02 00:02:46;;;;;;;;;;;13.90;34.50;15.60;97329.00;;;;5061065;28;1709;-86
2024/04/02 00:05:13;;;;;;;;;;;13.90;34.50;15.60;97338.00;;;;5060476;28;1823;-85
2024/04/02 00:07:39;;;;;;;;;;;13.90;34.50;15.60;97345.00;;;;5055934;28;1710;-85
2024/04/02 00:10:07;;;;;;;;;;;13.90;34.40;15.60;97327.00;;;;5055601;28;1706;-85
2024/04/02 00:12:33;;;;;;;;;;;13.90;34.40;15.60;97354.00;;;;5055485;28;1902;-85
2024/04/02 00:15:05;;;;;;;;;;;13.90;34.40;15.60;97308.00;;;;5055671;28;1705;-85
2024/04/02 00:17:31;;;;;;;;;;;13.90;34.40;15.60;97330.00;;;;5055675;28;1850;-86
2024/04/02 00:19:58;;;;;;;;;;;13.90;34.40;15.60;97322.00;;;;5055218;28;1634;-85
2024/04/02 00:22:24;;;;;;;;;;;13.90;34.40;15.60;97328.00;;;;5054285;28;1653;-86
2024/04/02 00:24:51;;;;;;;;;;;13.90;34.40;15.60;97362.00;;;;5056059;28;1762;-86
2024/04/02 00:27:19;;;;;;;;;;;13.90;35.10;15.60;97301.00;;;;5068095;28;1705;-85
2024/04/02 00:29:46;;;;;;;;;;;13.90;34.50;15.60;97330.00;;;;5055908;28;1373;-85
2024/04/02 00:32:12;;;;;;;;;;;13.90;34.40;15.60;97370.00;;;;5055318;28;1983;-86
2024/04/02 00:34:43;;;;;;;;;;;13.90;34.40;15.60;97373.00;;;;5055388;28;1677;-85
2024/04/02 00:37:09;;;;;;;;;;;13.90;34.50;15.60;97373.00;;;;5053787;28;1719;-85
2024/04/02 00:39:36;;;;;;;;;;;13.90;34.40;15.60;97331.00;;;;5052146;28;1496;-85
2024/04/02 00:42:03;;;;;;;;;;;13.90;34.50;15.60;97346.00;;;;5060736;28;1721;-85
2024/04/02 00:44:34;;;;;;;;;;;13.90;34.50;15.60;97380.00;;;;5054632;28;1787;-85
2024/04/02 00:47:00;;;;;;;;;;;13.90;34.50;15.60;97346.00;;;;5054987;28;1650;-85
2024/04/02 00:49:27;;;;;;;;;;;13.90;34.50;15.60;97320.00;;;;5048614;28;1742;-85
2024/04/02 00:51:53;;;;;;;;;;;13.90;34.50;15.60;97385.00;;;;5055387;28;1985;-85
2024/04/02 00:54:20;;;;;;;;;;;13.90;34.50;15.60;97369.00;;;;5055912;28;1803;-83
2024/04/02 00:56:46;;;;;;;;;;;13.90;34.50;15.60;97314.00;;;;5056269;28;1644;-83
2024/04/02 00:59:13;;;;;;;;;;;13.90;34.50;15.60;97379.00;;;;5052706;28;1659;-84
2024/04/02 01:01:40;;;;;;;;;;;13.90;34.50;15.60;97403.00;;;;5054045;28;1705;-84
2024/04/02 01:04:07;;;;;;;;;;;13.90;34.50;15.60;97407.00;;;;5057759;28;1645;-84
2024/04/02 01:06:33;;;;;;;;;;;13.90;34.50;15.50;97403.00;;;;5057817;28;1851;-83
2024/04/02 01:09:00;;;;;;;;;;;13.90;34.50;15.50;97406.00;;;;5061641;28;1658;-84
2024/04/02 01:11:26;;;;;;;;;;;13.80;34.50;15.50;97413.00;;;;5057190;28;1898;-83
2024/04/02 01:13:53;;;;;;;;;;;13.80;34.50;15.50;97414.00;;;;5069405;28;1462;-83
2024/04/02 01:16:19;;;;;;;;;;;13.80;34.50;15.50;97395.00;;;;5062565;28;1636;-83
2024/04/02 01:18:48;;;;;;;;;;;13.80;34.40;15.50;97422.00;;;;5061189;28;1681;-83
2024/04/02 01:21:14;;;;;;;;;;;13.90;34.50;15.50;97362.00;;;;5063091;28;1685;-84
2024/04/02 01:23:41;;;;;;;;;;;13.90;34.50;15.50;97424.00;;;;5057636;28;1869;-83
2024/04/02 01:26:08;;;;;;;;;;;13.80;34.40;15.50;97415.00;;;;5056078;28;1805;-83
2024/04/02 01:28:35;;;;;;;;;;;13.80;34.50;15.50;97424.00;;;;5057634;28;1780;-84
2024/04/02 01:31:02;;;;;;;;;;;13.80;34.50;15.50;97429.00;;;;5057747;28;1661;-83
2024/04/02 01:33:29;;;;;;;;;;;13.80;34.50;15.50;97398.00;;;;5057222;28;1981;-84
2024/04/02 01:35:56;;;;;;;;;;;13.90;34.50;15.50;97429.00;;;;5057203;28;1586;-83
2024/04/02 01:38:22;;;;;;;;;;;13.90;34.50;15.50;97462.00;;;;5059285;28;1714;-83
2024/04/02 01:40:49;;;;;;;;;;;13.80;34.50;15.50;97439.00;;;;5051005;28;1693;-83
2024/04/02 01:43:17;;;;;;;;;;;13.90;34.50;15.50;97417.00;;;;5045470;28;1828;-84
2024/04/02 01:45:44;;;;;;;;;;;13.80;34.50;15.40;97412.00;;;;5049778;28;1836;-83
2024/04/02 01:48:10;;;;;;;;;;;13.80;34.50;15.50;97454.00;;;;5047650;28;1666;-83
2024/04/02 01:50:37;;;;;;;;;;;13.80;34.50;15.50;97445.00;;;;5053855;28;1776;-83
2024/04/02 01:53:03;;;;;;;;;;;13.80;34.50;15.50;97452.00;;;;5050402;28;2001;-84
2024/04/02 01:55:30;;;;;;;;;;;13.80;34.50;15.50;97452.00;;;;5050778;28;1691;-84
2024/04/02 01:57:56;;;;;;;;;;;13.80;34.60;15.50;97461.00;;;;5061520;28;1745;-84
2024/04/02 02:00:24;;;;;;;;;;;13.80;34.50;15.50;97438.00;;;;5054512;28;1637;-84
2024/04/02 02:02:50;;;;;;;;;;;13.80;34.60;15.50;97468.00;;;;5058178;28;1752;-83
2024/04/02 02:05:17;;;;;;;;;;;13.80;34.50;15.50;97463.00;;;;5061844;28;1719;-84
2024/04/02 02:07:43;;;;;;;;;;;13.80;34.60;15.50;97470.00;;;;5057711;28;1775;-84
2024/04/02 02:10:12;;;;;;;;;;;13.80;35.20;15.50;97486.00;;;;5055948;28;1819;-84
2024/04/02 02:12:37;;;;;;;;;;;13.80;34.60;15.30;97490.00;;;;5048982;28;1898;-83
2024/04/02 02:15:05;;;;;;;;;;;13.70;34.50;15.50;97478.00;;;;5056114;28;1630;-83
2024/04/02 02:17:32;;;;;;;;;;;13.80;34.60;15.50;97472.00;;;;5052496;28;1684;-84
2024/04/02 02:19:59;;;;;;;;;;;13.80;34.60;15.50;97459.00;;;;5048009;28;1777;-84
2024/04/02 02:22:26;;;;;;;;;;;13.80;34.60;15.50;97488.00;;;;5044996;28;1839;-83
2024/04/02 02:24:52;;;;;;;;;;;13.80;34.60;15.50;97503.00;;;;5042219;28;1643;-84
2024/04/02 02:27:19;;;;;;;;;;;13.80;34.60;15.50;97473.00;;;;5065306;28;1670;-83
2024/04/02 02:29:45;;;;;;;;;;;13.80;34.60;15.50;97455.00;;;;5066703;28;1653;-84
2024/04/02 02:32:12;;;;;;;;;;;13.70;34.50;15.50;97495.00;;;;5066903;28;1906;-84
2024/04/02 02:34:40;;;;;;;;;;;13.80;34.70;15.50;97499.00;;;;5065347;28;1706;-84
2024/04/02 02:37:08;;;;;;;;;;;13.70;34.60;15.40;97523.00;;;;5056938;28;1772;-83
2024/04/02 02:39:34;;;;;;;;;;;13.80;34.60;15.40;97504.00;;;;5065085;28;1801;-84
2024/04/02 02:42:01;;;;;;;;;;;13.80;34.60;15.40;97529.00;;;;5063547;28;1770;-84
2024/04/02 02:44:27;;;;;;;;;;;13.70;34.60;15.40;97503.00;;;;5057784;28;2637;-84
2024/04/02 02:46:54;;;;;;;;;;;13.80;34.60;15.40;97524.00;;;;5051332;28;1610;-83
2024/04/02 02:49:20;;;;;;;;;;;13.70;34.60;15.40;97514.00;;;;5055119;28;1626;-83
2024/04/02 02:51:48;;;;;;;;;;;13.70;34.60;15.40;97526.00;;;;5070036;28;1901;-83
2024/04/02 02:54:14;;;;;;;;;;;13.70;34.60;15.40;97530.00;;;;5055508;28;1780;-83
2024/04/02 02:56:41;;;;;;;;;;;13.70;34.60;15.40;97517.00;;;;5068690;28;1790;-84
2024/04/02 02:59:07;;;;;;;;;;;13.70;34.60;15.40;97518.00;;;;5064133;28;1689;-84
2024/04/02 03:01:34;;;;;;;;;;;13.70;34.60;15.40;97501.00;;;;5055933;28;1716;-84
2024/04/02 03:04:00;;;;;;;;;;;13.70;34.60;15.40;97524.00;;;;5055796;28;1768;-83
2024/04/02 03:06:27;;;;;;;;;;;13.70;34.60;15.40;97523.00;;;;5053373;28;1617;-83
2024/04/02 03:08:54;;;;;;;;;;;13.70;34.60;15.40;97544.00;;;;5055723;28;1801;-84
2024/04/02 03:11:21;;;;;;;;;;;13.70;34.60;15.40;97546.00;;;;5055316;28;1706;-83
2024/04/02 03:13:48;;;;;;;;;;;13.70;34.60;15.40;97551.00;;;;5057943;28;1902;-83
2024/04/02 03:16:19;;;;;;;;;;;13.70;34.60;15.40;97544.00;;;;5047613;28;1661;-83
2024/04/02 03:18:46;;;;;;;;;;;13.70;34.60;15.40;97554.00;;;;5055916;28;1621;-83
2024/04/02 03:21:12;;;;;;;;;;;13.70;34.60;15.40;97554.00;;;;5055974;28;1649;-84
2024/04/02 03:23:39;;;;;;;;;;;13.70;34.60;15.40;97528.00;;;;5057183;28;1780;-84
2024/04/02 03:26:07;;;;;;;;;;;13.70;34.60;15.40;97567.00;;;;5056322;28;1645;-84
2024/04/02 03:28:34;;;;;;;;;;;13.70;34.60;15.40;97580.00;;;;5054501;28;1682;-84
2024/04/02 03:31:00;;;;;;;;;;;13.70;34.60;15.40;97583.00;;;;5060895;28;1705;-84
2024/04/02 03:33:28;;;;;;;;;;;13.70;34.60;15.40;97524.00;;;;5050647;28;1895;-84
2024/04/02 03:35:54;;;;;;;;;;;13.70;34.60;15.40;97583.00;;;;5055800;28;1697;-83
2024/04/02 03:38:21;;;;;;;;;;;13.70;34.60;15.40;97561.00;;;;5054311;28;1887;-84
2024/04/02 03:40:48;;;;;;;;;;;13.70;34.60;15.40;97559.00;;;;5055782;28;1773;-83
2024/04/02 03:43:16;;;;;;;;;;;13.70;34.60;15.40;97581.00;;;;5055176;28;1685;-84
2024/04/02 03:45:44;;;;;;;;;;;13.70;34.60;15.40;97583.00;;;;5055281;28;1650;-84
2024/04/02 03:48:10;;;;;;;;;;;13.70;34.60;15.40;97555.00;;;;5060720;28;1531;-84
2024/04/02 03:50:37;;;;;;;;;;;13.70;34.60;15.40;97571.00;;;;5065283;28;1610;-84
2024/04/02 03:53:04;;;;;;;;;;;13.70;34.60;15.40;97569.00;;;;5061523;28;1886;-84
2024/04/02 03:55:33;;;;;;;;;;;13.70;34.70;15.40;97520.00;;;;5054561;28;1848;-83
2024/04/02 03:57:59;;;;;;;;;;;13.60;34.60;15.40;97586.00;;;;5055217;28;1802;-84
2024/04/02 04:00:28;;;;;;;;;;;13.70;34.60;15.40;97532.00;;;;5048043;28;1705;-84
2024/04/02 04:02:54;;;;;;;;;;;13.70;34.60;15.40;97582.00;;;;5055125;28;1736;-84
2024/04/02 04:05:21;;;;;;;;;;;13.60;34.60;15.30;97533.00;;;;5054679;28;1784;-83
2024/04/02 04:07:47;;;;;;;;;;;13.60;34.60;15.30;97590.00;;;;5059943;28;1633;-84
2024/04/02 04:10:17;;;;;;;;;;;13.70;34.60;15.40;97549.00;;;;5054804;28;1669;-83
2024/04/02 04:12:43;;;;;;;;;;;13.60;34.60;15.30;97567.00;;;;5050253;28;2011;-84
2024/04/02 04:15:10;;;;;;;;;;;13.60;34.60;15.40;97605.00;;;;5049278;28;1840;-84
2024/04/02 04:17:37;;;;;;;;;;;13.60;34.50;15.30;97600.00;;;;5048744;28;1855;-83
2024/04/02 04:20:05;;;;;;;;;;;13.70;35.30;15.40;97607.00;;;;5057616;28;1764;-84
2024/04/02 04:22:31;;;;;;;;;;;13.70;34.60;15.30;97550.00;;;;5054014;28;1828;-84
2024/04/02 04:24:58;;;;;;;;;;;13.70;34.60;15.30;97542.00;;;;5053214;28;1637;-84
2024/04/02 04:27:28;;;;;;;;;;;13.70;34.60;15.30;97608.00;;;;5055892;28;1882;-85
2024/04/02 04:29:55;;;;;;;;;;;13.70;34.60;15.30;97607.00;;;;5055242;28;1823;-84
2024/04/02 04:32:21;;;;;;;;;;;13.70;34.60;15.30;97602.00;;;;5053616;28;1902;-84
2024/04/02 04:34:49;;;;;;;;;;;13.70;34.60;15.30;97559.00;;;;5055167;28;1792;-84
2024/04/02 04:37:15;;;;;;;;;;;13.70;34.60;15.30;97571.00;;;;5052269;28;1742;-84
2024/04/02 04:39:42;;;;;;;;;;;13.60;34.60;15.40;97613.00;;;;5053812;28;1728;-84
2024/04/02 04:42:08;;;;;;;;;;;13.70;34.60;15.40;97615.00;;;;5054457;28;1788;-85
2024/04/02 04:44:35;;;;;;;;;;;13.70;34.60;15.30;97590.00;;;;5053929;28;1750;-84
2024/04/02 04:47:01;;;;;;;;;;;13.70;34.60;15.40;97614.00;;;;5056253;28;1734;-84
2024/04/02 04:49:28;;;;;;;;;;;13.70;35.20;15.30;97603.00;;;;5054106;28;1538;-84
2024/04/02 04:51:56;;;;;;;;;;;13.70;34.60;15.30;97628.00;;;;5055223;28;1850;-83
2024/04/02 04:54:23;;;;;;;;;;;13.70;34.60;15.30;97633.00;;;;5052215;28;1910;-84
2024/04/02 04:56:49;;;;;;;;;;;13.60;34.50;15.30;97638.00;;;;5054065;28;1857;-83
2024/04/02 04:59:16;;;;;;;;;;;13.70;34.60;15.30;97639.00;;;;5052902;28;1725;-84
2024/04/02 05:01:42;;;;;;;;;;;13.60;34.60;15.30;97597.00;;;;5049932;28;1640;-84
2024/04/02 05:04:09;;;;;;;;;;;13.60;34.60;15.30;97647.00;;;;5054214;28;1348;-84
2024/04/02 05:06:38;;;;;;;;;;;13.60;34.50;15.30;97652.00;;;;5054093;28;1780;-84
2024/04/02 05:09:07;;;;;;;;;;;13.70;34.60;15.30;97653.00;;;;5054444;28;1650;-84
2024/04/02 05:11:33;;;;;;;;;;;13.60;34.60;15.30;97651.00;;;;5053519;28;1701;-84
2024/04/02 05:14:00;;;;;;;;;;;13.60;34.50;15.30;97654.00;;;;5052602;28;1973;-84
2024/04/02 05:16:27;;;;;;;;;;;13.60;34.50;15.30;97652.00;;;;5050632;28;1713;-84
2024/04/02 05:18:54;;;;;;;;;;;13.60;34.60;15.30;97655.00;;;;5050115;28;1714;-84
2024/04/02 05:21:20;;;;;;;;;;;13.60;34.60;15.30;97655.00;;;;5053725;28;1455;-83
2024/04/02 05:23:47;;;;;;;;;;;13.60;34.50;15.30;97654.00;;;;5050355;28;1869;-84
2024/04/02 05:26:14;;;;;;;;;;;13.70;34.60;15.30;97658.00;;;;5058424;28;1591;-85
2024/04/02 05:28:41;;;;;;;;;;;13.60;34.60;15.30;97648.00;;;;5053784;28;1696;-84
2024/04/02 05:31:07;;;;;;;;;;;13.60;34.60;15.30;97666.00;;;;5056099;28;1854;-84
2024/04/02 05:33:34;;;;;;;;;;;13.60;34.60;15.30;97669.00;;;;5053098;28;1891;-84
2024/04/02 05:36:01;;;;;;;;;;;13.60;34.60;15.30;97667.00;;;;5055370;28;1618;-83
2024/04/02 05:38:28;;;;;;;;;;;13.60;34.50;15.30;97679.00;;;;5052839;28;1775;-84
2024/04/02 05:40:54;;;;;;;;;;;13.60;34.60;15.30;97656.00;;;;5049669;28;1567;-84
2024/04/02 05:43:24;;;;;;;;;;;13.60;34.50;15.30;97661.00;;;;5053021;28;1817;-84
2024/04/02 05:45:50;;;;;;;;;;;13.60;34.60;15.30;97666.00;;;;5050206;28;1705;-84
2024/04/02 05:48:17;;;;;;;;;;;13.60;34.60;15.30;97664.00;;;;5059735;28;1783;-84
2024/04/02 05:50:43;;;;;;;;;;;13.60;34.60;15.30;97675.00;;;;5056702;28;1638;-84
2024/04/02 05:53:10;;;;;;;;;;;13.60;34.60;15.30;97674.00;;;;5054281;28;1926;-84
2024/04/02 05:55:36;;;;;;;;;;;13.60;34.60;15.30;97678.00;;;;5058086;28;1585;-84
2024/04/02 05:58:03;;;;;;;;;;;13.60;34.60;15.30;97650.00;;;;5054338;28;1408;-83
2024/04/02 06:00:31;;;;;;;;;;;13.60;34.60;15.30;97677.00;;;;5051594;28;1516;-84
2024/04/02 06:03:00;;;;;;;;;;;13.60;35.20;15.30;97694.00;;;;5057217;28;1802;-83
2024/04/02 06:05:26;;;;;;;;;;;13.60;34.50;15.30;97624.00;;;;5054584;28;1693;-84
2024/04/02 06:07:57;;;;;;;;;;;13.60;34.50;15.30;97680.00;;;;5056856;28;1736;-84
2024/04/02 06:10:23;;;;;;;;;;;13.60;34.60;15.30;97686.00;;;;5055701;28;1416;-83
2024/04/02 06:12:50;;;;;;;;;;;13.60;34.60;15.30;97685.00;;;;5057102;28;1983;-85
2024/04/02 06:15:17;;;;;;;;;;;13.60;34.60;15.30;97670.00;;;;5052470;28;1454;-84
2024/04/02 06:17:45;;;;;;;;;;;13.60;34.60;15.30;97678.00;;;;5057309;28;1848;-84
2024/04/02 06:20:11;;;;;;;;;;;13.60;34.50;15.30;97688.00;;;;5058810;28;1629;-83
2024/04/02 06:22:38;;;;;;;;;;;13.60;34.50;15.30;97689.00;;;;5056875;28;1736;-84
2024/04/02 06:25:04;;;;;;;;;;;13.60;34.50;15.30;97660.00;;;;5056665;28;1753;-84
2024/04/02 06:27:31;;;;;;;;;;;13.60;34.60;15.30;97688.00;;;;5056930;28;1526;-84
2024/04/02 06:29:57;;;;;;;;;;;13.60;34.50;15.30;97664.00;;;;5056975;28;1649;-83
2024/04/02 06:32:24;;;;;;;;;;;13.70;34.60;15.30;97714.00;;;;5056429;28;1772;-84
2024/04/02 06:34:52;;;;;;;;;;;13.60;34.50;15.30;97697.00;;;;5049420;28;1992;-84
2024/04/02 06:37:19;;;;;;;;;;;13.70;34.60;15.30;97702.00;;;;5057982;28;1684;-84
2024/04/02 06:39:45;;;;;;;;;;;13.60;34.50;15.30;97677.00;;;;5056294;28;1800;-85
2024/04/02 06:42:12;;;;;;;;;;;13.60;34.60;15.30;97638.00;;;;5056422;28;1841;-86
2024/04/02 06:44:38;;;;;;;;;;;13.60;34.50;15.30;97692.00;;;;5062794;28;1709;-84
2024/04/02 06:47:05;;;;;;;;;;;13.60;34.60;15.30;97685.00;;;;5057576;28;1773;-84
2024/04/02 06:49:31;;;;;;;;;;;13.70;34.60;15.30;97686.00;;;;5055885;28;1583;-85
2024/04/02 06:51:59;;;;;;;;;;;13.70;34.60;15.30;97661.00;;;;5053774;28;1736;-84
2024/04/02 06:54:25;;;;;;;;;;;13.70;34.60;15.40;97702.00;;;;5054570;28;1910;-85
2024/04/02 06:56:52;;;;;;;;;;;13.70;34.50;15.40;97694.00;;;;5055427;28;1710;-84
2024/04/02 06:59:18;;;;;;;;;;;13.80;34.50;15.50;97668.00;;;;5051926;28;1678;-85
2024/04/02 07:01:45;;;;;;;;;;;13.90;34.40;15.50;97666.00;;;;5052625;28;1681;-84
2024/04/02 07:04:11;;;;;;;;;;;13.90;34.40;15.50;97687.00;;;;5056543;28;1660;-84
2024/04/02 07:06:38;;;;;;;;;;;13.90;34.50;15.50;97698.00;;;;5052541;28;1693;-84
2024/04/02 07:09:08;;;;;;;;;;;13.90;34.50;15.50;97686.00;;;;5053808;28;1621;-85
2024/04/02 07:11:35;;;;;;;;;;;13.90;34.60;15.50;97664.00;;;;5060166;28;1864;-85
2024/04/02 07:14:01;;;;;;;;;;;13.90;34.50;15.50;97660.00;;;;5056550;28;1987;-84
2024/04/02 07:16:28;;;;;;;;;;;13.90;34.50;15.60;97719.00;;;;5055946;28;1553;-85
2024/04/02 07:18:54;;;;;;;;;;;13.90;34.40;15.50;97692.00;;;;5053372;28;1387;-85
2024/04/02 07:21:21;;;;;;;;;;;13.90;34.40;15.60;97695.00;;;;5052960;28;1799;-85
2024/04/02 07:23:47;;;;;;;;;;;13.90;34.50;15.60;97681.00;;;;5052735;28;1487;-84
2024/04/02 07:26:16;;;;;;;;;;;13.90;35.10;15.60;97739.00;;;;5054172;28;1789;-84
2024/04/02 07:28:42;;;;;;;;;;;13.90;34.50;15.60;97739.00;;;;5053933;28;1853;-84
2024/04/02 07:31:09;;;;;;;;;;;13.90;34.40;15.60;97758.00;;;;5059510;28;1646;-85
2024/04/02 07:33:35;;;;;;;;;;;13.90;34.40;15.60;97739.00;;;;5052701;28;1985;-84
2024/04/02 07:36:06;;;;;;;;;;;14.00;34.40;15.70;97732.00;;;;5054630;28;1880;-86
2024/04/02 07:38:32;;;;;;;;;;;14.00;34.20;15.60;97779.00;;;;5051851;28;1840;-84
2024/04/02 07:40:59;;;;;;;;;;;14.10;34.30;15.70;97774.00;;;;5055553;28;1767;-83
2024/04/02 07:43:27;;;;;;;;;;;14.10;34.30;15.70;97743.00;;;;5054936;28;1732;-84
2024/04/02 07:45:55;;;;;;;;;;;14.10;34.20;15.80;97762.00;;;;5049446;28;1638;-84
2024/04/02 07:48:21;;;;;;;;;;;14.20;34.20;15.80;97778.00;;;;5052657;28;1520;-85
2024/04/02 07:50:49;;;;;;;;;;;14.20;34.20;15.90;97740.00;;;;5056297;28;1836;-84
2024/04/02 07:53:15;;;;;;;;;;;14.20;34.10;15.90;97777.00;;;;5052858;28;1969;-84
2024/04/02 07:55:42;;;;;;;;;;;14.30;34.10;16.00;97757.00;;;;5053686;28;1858;-84
2024/04/02 07:58:09;;;;;;;;;;;14.40;34.10;16.00;97755.00;;;;5055143;28;1620;-84
2024/04/02 08:00:38;;;;;;;;;;;14.40;34.00;16.10;97727.00;;;;5050766;28;1514;-86
2024/04/02 08:03:04;;;;;;;;;;;14.50;33.90;16.20;97779.00;;;;5055213;28;1860;-84
2024/04/02 08:05:31;;;;;;;;;;;14.50;33.90;16.20;97791.00;;;;5054651;28;1840;-84
2024/04/02 08:07:57;;;;;;;;;;;14.50;33.80;16.20;97770.00;;;;5052037;28;1341;-85
2024/04/02 08:10:25;;;;;;;;;;;14.50;33.70;16.20;97754.00;;;;5052372;28;1641;-85
2024/04/02 08:12:51;;;;;;;;;;;14.50;33.80;16.20;97737.00;;;;5054301;28;1630;-86
2024/04/02 08:15:18;;;;;;;;;;;14.50;33.80;16.20;97799.00;;;;5059180;28;1956;-84
2024/04/02 08:17:45;;;;;;;;;;;14.50;33.90;16.20;97800.00;;;;5056176;28;1775;-86
2024/04/02 08:20:13;;;;;;;;;;;14.50;33.90;16.20;97807.00;;;;5039181;28;1675;-85
2024/04/02 08:22:39;;;;;;;;;;;14.40;33.90;16.20;97804.00;;;;5054471;28;1665;-85
2024/04/02 08:25:09;;;;;;;;;;;14.40;34.60;16.10;97816.00;;;;5052904;28;1650;-85
2024/04/02 08:27:35;;;;;;;;;;;14.40;34.00;16.00;97835.00;;;;5055275;28;1624;-84
2024/04/02 08:30:05;;;;;;;;;;;14.40;34.10;16.10;97830.00;;;;5055496;28;1721;-84
2024/04/02 08:32:31;;;;;;;;;;;14.30;34.00;16.10;97831.00;;;;5054782;28;1705;-84
2024/04/02 08:34:59;;;;;;;;;;;14.30;34.10;16.00;97829.00;;;;5054904;28;2046;-84
2024/04/02 08:37:25;;;;;;;;;;;14.30;34.20;16.00;97850.00;;;;5054489;28;1644;-84
2024/04/02 08:39:52;;;;;;;;;;;14.30;34.20;16.00;97856.00;;;;5051956;28;1515;-84
2024/04/02 08:42:19;;;;;;;;;;;14.30;34.20;16.00;97854.00;;;;5054972;28;1849;-84
2024/04/02 08:44:45;;;;;;;;;;;14.20;34.20;16.00;97849.00;;;;5054830;28;2711;-84
2024/04/02 08:47:12;;;;;;;;;;;14.20;34.20;16.00;97825.00;;;;5054839;28;1657;-84
2024/04/02 08:49:38;;;;;;;;;;;14.20;34.30;15.90;97860.00;;;;5053191;28;1535;-84
2024/04/02 08:52:07;;;;;;;;;;;14.20;34.30;15.90;97821.00;;;;5058365;28;1597;-85
2024/04/02 08:54:33;;;;;;;;;;;14.20;34.30;15.90;97814.00;;;;5061849;28;1902;-84
2024/04/02 08:57:00;;;;;;;;;;;14.20;34.30;15.90;97873.00;;;;5056871;28;1749;-84
2024/04/02 08:59:29;;;;;;;;;;;14.20;34.40;15.90;97861.00;;;;5051387;28;1706;-84
2024/04/02 09:01:56;;;;;;;;;;;14.20;34.40;15.80;97861.00;;;;5073086;28;1743;-84
2024/04/02 09:04:24;;;;;;;;;;;14.20;34.40;15.80;97876.00;;;;5054688;28;1707;-84
2024/04/02 09:06:51;;;;;;;;;;;14.20;34.40;15.80;97864.00;;;;5055180;28;1643;-84
2024/04/02 09:09:21;;;;;;;;;;;14.20;34.40;15.90;97856.00;;;;5054247;28;1657;-84
2024/04/02 09:11:49;;;;;;;;;;;14.30;34.40;15.80;97876.00;;;;5058915;28;1745;-83
2024/04/02 09:14:16;;;;;;;;;;;14.30;34.30;15.90;97864.00;;;;5056091;28;1961;-84
2024/04/02 09:16:43;;;;;;;;;;;14.30;34.20;15.90;97865.00;;;;5059836;28;1625;-84
2024/04/02 09:19:09;;;;;;;;;;;14.30;34.20;16.00;97847.00;;;;5059450;28;1588;-84
2024/04/02 09:21:36;;;;;;;;;;;14.30;34.20;16.00;97841.00;;;;5057885;28;1786;-84
2024/04/02 09:24:04;;;;;;;;;;;14.40;34.20;16.00;97859.00;;;;5060581;28;1737;-84
2024/04/02 09:26:33;;;;;;;;;;;14.40;34.20;16.00;97896.00;;;;5069806;28;1696;-84
2024/04/02 09:28:59;;;;;;;;;;;14.40;34.10;16.00;97902.00;;;;5072176;28;1696;-84
2024/04/02 09:31:26;;;;;;;;;;;14.50;34.00;16.10;97889.00;;;;5082832;28;1839;-84
2024/04/02 09:33:52;;;;;;;;;;;14.50;34.00;16.10;97909.00;;;;5071719;28;1882;-85
2024/04/02 09:36:52;;;;;;;;;;;14.50;34.00;16.10;97889.00;;;;5061470;28;1760;-84
2024/04/02 09:39:19;;;;;;;;;;;14.50;34.00;16.10;97883.00;;;;5018010;28;1719;-85
2024/04/02 09:41:47;;;;;;;;;;;14.50;34.00;16.20;97873.00;;;;5043939;28;1698;-84
2024/04/02 09:44:14;;;;;;;;;;;14.50;34.00;16.20;97836.00;;;;5057999;28;1702;-84
2024/04/02 09:46:42;;;;;;;;;;;14.50;34.00;16.20;97897.00;;;;5056667;28;1709;-85
2024/04/02 09:49:09;;;;;;;;;;;14.50;34.00;16.20;97902.00;;;;5054052;28;1829;-84
2024/04/02 09:51:36;;;;;;;;;;;14.50;34.00;16.20;97861.00;;;;5058146;28;1682;-83
2024/04/02 09:54:03;;;;;;;;;;;14.50;34.00;16.20;97869.00;;;;5055599;28;1902;-84
2024/04/02 09:56:32;;;;;;;;;;;14.50;34.10;16.10;97916.00;;;;5056875;28;1786;-84
2024/04/02 09:58:59;;;;;;;;;;;14.50;34.20;16.10;97903.00;;;;5054332;28;1641;-84
2024/04/02 10:01:28;;;;;;;;;;;14.40;34.10;16.10;97913.00;;;;5058880;28;1511;-84
2024/04/02 10:03:57;;;;;;;;;;;14.40;34.10;16.10;97859.00;;;;5056485;28;1551;-84
2024/04/02 10:06:24;;;;;;;;;;;14.50;34.20;16.10;97892.00;;;;5057336;28;1757;-83
2024/04/02 10:08:59;;;;;;;;;;;14.50;34.10;16.10;97874.00;;;;5057502;28;1708;-84
2024/04/02 10:11:35;;;;;;;;;;;14.50;34.20;16.10;97898.00;;;;5055438;28;1774;-83
2024/04/02 10:14:05;;;;;;;;;;;14.50;34.20;16.20;97874.00;;;;5053248;28;1975;-84
2024/04/02 10:16:32;;;;;;;;;;;14.40;34.20;16.20;97848.00;;;;5049840;28;1812;-83
2024/04/02 10:19:00;;;;;;;;;;;14.50;34.20;16.20;97884.00;;;;5043726;28;1834;-84
2024/04/02 10:21:27;;;;;;;;;;;14.50;34.20;16.20;97892.00;;;;5057444;28;1666;-84
2024/04/02 10:23:54;;;;;;;;;;;14.40;34.10;16.20;97903.00;;;;5057625;28;1705;-84
2024/04/02 10:26:20;;;;;;;;;;;14.50;34.10;16.20;97889.00;;;;5055810;28;1595;-84
2024/04/02 10:28:48;;;;;;;;;;;14.50;34.10;16.20;97853.00;;;;5057465;28;1827;-83
2024/04/02 10:31:16;;;;;;;;;;;14.50;34.20;16.20;97834.00;;;;5058730;28;1590;-85
2024/04/02 10:33:46;;;;;;;;;;;14.40;34.20;16.10;97826.00;;;;5060855;28;1915;-85
2024/04/02 10:36:12;;;;;;;;;;;14.50;34.20;16.10;97898.00;;;;5048767;28;1764;-85
2024/04/02 10:38:41;;;;;;;;;;;14.50;34.20;16.10;97891.00;;;;5055259;28;1585;-86
2024/04/02 10:41:07;;;;;;;;;;;14.50;34.20;16.10;97862.00;;;;5060022;28;1510;-84
2024/04/02 10:43:34;;;;;;;;;;;14.50;34.20;16.10;97921.00;;;;5076765;28;1597;-84
2024/04/02 10:46:00;;;;;;;;;;;14.50;34.20;16.10;97850.00;;;;5058755;28;1591;-85
2024/04/02 10:48:28;;;;;;;;;;;14.40;34.20;16.10;97909.00;;;;5062914;28;1610;-84
2024/04/02 10:50:54;;;;;;;;;;;14.40;34.20;16.10;97911.00;;;;5065604;28;1853;-84
2024/04/02 10:53:21;;;;;;;;;;;14.40;34.20;16.10;97906.00;;;;5056565;28;1708;-84
2024/04/02 10:55:49;;;;;;;;;;;14.40;34.30;16.10;97914.00;;;;5056277;28;1934;-85
2024/04/02 10:58:16;;;;;;;;;;;14.40;34.30;16.10;97898.00;;;;5056633;28;1781;-84
2024/04/02 11:00:42;;;;;;;;;;;14.40;34.20;16.10;97911.00;;;;5056718;28;1782;-85
2024/04/02 11:03:09;;;;;;;;;;;14.40;34.20;16.10;97910.00;;;;5063533;28;1852;-85
2024/04/02 11:05:36;;;;;;;;;;;14.40;34.20;16.10;97891.00;;;;5061077;28;1661;-85
2024/04/02 11:08:04;;;;;;;;;;;14.50;34.30;16.10;97903.00;;;;5049174;28;1746;-87
2024/04/02 11:10:30;;;;;;;;;;;14.50;34.30;16.10;97916.00;;;;5058759;28;1676;-86
2024/04/02 11:12:57;;;;;;;;;;;14.40;34.10;16.10;97927.00;;;;5061919;28;1468;-86
2024/04/02 11:15:26;;;;;;;;;;;14.50;34.20;16.10;97892.00;;;;5064003;28;1914;-86
2024/04/02 11:17:53;;;;;;;;;;;14.40;34.20;16.10;97905.00;;;;5059179;28;1732;-88
2024/04/02 11:20:20;;;;;;;;;;;14.40;34.20;16.00;97876.00;;;;5064009;28;1786;-87
2024/04/02 11:25:34;;;;;;;;;;;14.40;34.20;16.10;97880.00;;;;5059308;28;1687;-88
2024/04/02 11:28:05;;;;;;;;;;;14.40;34.40;16.10;97923.00;;;;5070187;28;1732;-88
2024/04/02 11:30:31;;;;;;;;;;;14.40;34.40;16.10;97900.00;;;;5060356;28;1464;-88
2024/04/02 11:33:00;;;;;;;;;;;14.40;34.20;15.90;97910.00;;;;5062581;28;1771;-87
2024/04/02 11:35:27;;;;;;;;;;;14.40;34.30;16.10;97844.00;;;;5056038;28;1883;-88
2024/04/02 11:37:56;;;;;;;;;;;14.40;34.20;16.10;97922.00;;;;5060810;28;1630;-86
2024/04/02 11:40:22;;;;;;;;;;;14.50;34.30;16.10;97805.00;;;;5068180;28;1654;-87
2024/04/02 11:42:49;;;;;;;;;;;14.50;34.30;16.10;97863.00;;;;5050730;28;1855;-86
2024/04/02 11:45:15;;;;;;;;;;;14.50;34.30;16.10;97916.00;;;;5060423;28;1800;-87
2024/04/02 11:47:42;;;;;;;;;;;14.40;34.20;16.10;97936.00;;;;5059782;28;1692;-88
2024/04/02 11:50:10;;;;;;;;;;;14.40;34.20;16.10;97893.00;;;;5064276;28;1743;-88
2024/04/02 11:52:37;;;;;;;;;;;14.50;34.40;16.10;97924.00;;;;5065414;28;1693;-87
2024/04/02 11:55:07;;;;;;;;;;;14.40;34.30;16.10;97904.00;;;;5058725;28;1910;-87
2024/04/02 12:00:19;;;;;;;;;;;14.50;34.30;16.10;97915.00;;;;5055529;28;1718;-87
2024/04/02 12:02:49;;;;;;;;;;;14.40;34.20;16.10;97879.00;;;;5055968;28;1757;-88
2024/04/02 12:05:32;;;;;;;;;;;14.50;34.40;16.10;97901.00;;;;5053508;28;1655;-88
2024/04/02 12:08:06;;;;;;;;;;;14.50;34.40;16.10;97857.00;;;;5055048;28;1703;-87
2024/04/02 12:10:49;;;;;;;;;;;14.50;34.40;16.10;97871.00;;;;5062459;28;1661;-88
2024/04/02 12:13:15;;;;;;;;;;;14.40;34.30;16.10;97881.00;;;;5053814;28;1774;-87